createdAt,value
2018-11-01T00:01:02.318Z,83.19
2018-11-01T00:03:31.992Z,83.71
2018-11-01T00:06:00.549Z,83.51
2018-11-01T00:08:29.986Z,83.72
2018-11-01T00:11:00.050Z,83.60
2018-11-01T00:13:29.388Z,83.55
2018-11-01T00:15:57.950Z,83.51
2018-11-01T00:18:28.570Z,83.26
2018-11-01T00:20:57.918Z,83.44
2018-11-01T00:23:27.429Z,83.66
2018-11-01T00:25:56.671Z,84.23
2018-11-01T00:28:25.729Z,84.71
2018-11-01T00:30:54.634Z,85.39
2018-11-01T00:33:23.486Z,85.49
2018-11-01T00:35:52.844Z,86.06
2018-11-01T00:38:22.285Z,86.51
2018-11-01T00:40:51.803Z,85.68
2018-11-01T00:43:21.270Z,85.71
2018-11-01T00:45:50.699Z,85.08
2018-11-01T00:48:21.025Z,85.31
2018-11-01T00:50:51.155Z,86.18
2018-11-01T00:53:20.683Z,85.45
2018-11-01T00:55:50.715Z,85.65
2018-11-01T00:58:21.465Z,85.71
2018-11-01T01:00:50.793Z,86.20
2018-11-01T01:03:21.795Z,85.96
2018-11-01T01:05:50.670Z,86.59
2018-11-01T01:08:19.720Z,85.93
2018-11-01T01:10:48.800Z,87.04
2018-11-01T01:13:17.384Z,87.92
2018-11-01T01:15:47.365Z,87.81
2018-11-01T01:18:17.031Z,87.42
2018-11-01T01:20:47.396Z,88.09
2018-11-01T01:23:16.691Z,87.99
2018-11-01T01:25:45.481Z,88.54
2018-11-01T01:28:14.989Z,88.78
2018-11-01T01:30:44.006Z,88.95
2018-11-01T01:33:12.771Z,88.73
2018-11-01T01:35:42.384Z,87.88
2018-11-01T01:38:11.252Z,87.67
2018-11-01T01:40:41.641Z,87.56
2018-11-01T01:43:11.044Z,87.98
2018-11-01T01:45:39.692Z,88.50
2018-11-01T01:48:08.910Z,88.57
2018-11-01T01:50:38.127Z,88.69
2018-11-01T01:53:07.594Z,88.73
2018-11-01T01:55:36.980Z,88.75
2018-11-01T01:58:06.693Z,88.44
2018-11-01T02:00:36.218Z,88.90
2018-11-01T02:03:04.888Z,88.41
2018-11-01T02:05:34.137Z,88.24
2018-11-01T02:08:02.679Z,88.35
2018-11-01T02:10:32.532Z,87.59
2018-11-01T02:13:01.104Z,87.59
2018-11-01T02:15:31.839Z,87.26
2018-11-01T02:18:00.408Z,87.20
2018-11-01T02:20:28.967Z,87.30
2018-11-01T02:22:57.855Z,87.40
2018-11-01T02:25:27.119Z,87.45
2018-11-01T02:28:01.653Z,87.53
2018-11-01T02:30:31.201Z,87.36
2018-11-01T02:33:00.166Z,87.37
2018-11-01T02:35:29.605Z,87.45
2018-11-01T02:37:58.971Z,87.41
2018-11-01T02:40:28.241Z,87.51
2018-11-01T02:42:58.242Z,87.24
2018-11-01T02:45:27.514Z,87.46
2018-11-01T02:47:56.665Z,87.57
2018-11-01T02:50:27.106Z,87.58
2018-11-01T02:52:56.791Z,86.12
2018-11-01T02:55:26.800Z,86.42
2018-11-01T02:57:56.952Z,86.62
2018-11-01T03:00:26.375Z,86.52
2018-11-01T03:02:56.108Z,87.25
2018-11-01T03:05:25.364Z,87.93
2018-11-01T03:07:54.743Z,88.08
2018-11-01T03:10:23.946Z,89.14
2018-11-01T03:12:52.830Z,88.54
2018-11-01T03:15:21.638Z,88.38
2018-11-01T03:17:50.777Z,88.83
2018-11-01T03:20:19.864Z,88.39
2018-11-01T03:22:49.372Z,88.53
2018-11-01T03:25:18.294Z,88.63
2018-11-01T03:27:47.509Z,88.93
2018-11-01T03:30:17.763Z,89.00
2018-11-01T03:32:47.619Z,89.22
2018-11-01T03:35:17.004Z,89.22
2018-11-01T03:37:46.242Z,89.49
2018-11-01T03:40:15.882Z,89.61
2018-11-01T03:42:45.446Z,89.40
2018-11-01T03:45:14.176Z,89.08
2018-11-01T03:47:43.146Z,89.21
2018-11-01T03:50:12.840Z,89.53
2018-11-01T03:52:42.206Z,89.18
2018-11-01T03:55:12.608Z,88.61
2018-11-01T03:57:42.361Z,88.62
2018-11-01T04:00:16.468Z,88.80
2018-11-01T04:02:46.889Z,88.62
2018-11-01T04:05:17.164Z,89.38
2018-11-01T04:07:47.582Z,88.93
2018-11-01T04:10:18.409Z,89.67
2018-11-01T04:12:48.152Z,89.98
2018-11-01T04:15:18.560Z,90.02
2018-11-01T04:17:48.617Z,90.06
2018-11-01T04:20:17.178Z,90.00
2018-11-01T04:22:47.859Z,90.50
2018-11-01T04:25:17.190Z,90.22
2018-11-01T04:27:47.263Z,89.86
2018-11-01T04:30:19.766Z,89.84
2018-11-01T04:32:48.342Z,89.76
2018-11-01T04:35:18.959Z,89.85
2018-11-01T04:37:47.550Z,88.98
2018-11-01T04:40:18.617Z,88.70
2018-11-01T04:42:48.298Z,89.27
2018-11-01T04:45:17.210Z,89.24
2018-11-01T04:47:46.103Z,89.76
2018-11-01T04:50:14.882Z,89.68
2018-11-01T04:52:44.786Z,89.29
2018-11-01T04:55:14.162Z,89.48
2018-11-01T04:57:42.760Z,89.59
2018-11-01T05:00:13.780Z,89.74
2018-11-01T05:02:44.038Z,89.70
2018-11-01T05:05:13.362Z,90.47
2018-11-01T05:07:43.590Z,90.51
2018-11-01T05:10:13.587Z,89.21
2018-11-01T05:12:43.416Z,88.67
2018-11-01T05:15:14.043Z,89.18
2018-11-01T05:17:43.563Z,89.90
2018-11-01T05:20:14.918Z,90.02
2018-11-01T05:22:44.299Z,90.50
2018-11-01T05:25:13.581Z,90.30
2018-11-01T05:27:43.133Z,90.25
2018-11-01T05:30:13.847Z,90.51
2018-11-01T05:32:45.032Z,90.47
2018-11-01T05:35:15.051Z,90.47
2018-11-01T05:37:43.894Z,89.91
2018-11-01T05:40:13.033Z,90.06
2018-11-01T05:42:43.541Z,89.64
2018-11-01T05:45:13.527Z,89.53
2018-11-01T05:47:43.534Z,90.24
2018-11-01T05:50:12.428Z,90.06
2018-11-01T05:52:42.757Z,90.19
2018-11-01T05:55:12.739Z,90.18
2018-11-01T05:57:44.098Z,90.13
2018-11-01T06:00:14.562Z,89.63
2018-11-01T06:02:47.254Z,89.37
2018-11-01T06:05:17.853Z,89.39
2018-11-01T06:07:50.266Z,89.83
2018-11-01T06:10:20.064Z,89.85
2018-11-01T06:12:49.850Z,90.01
2018-11-01T06:15:19.095Z,89.97
2018-11-01T06:17:49.245Z,89.86
2018-11-01T06:20:18.351Z,89.58
2018-11-01T06:22:47.828Z,89.21
2018-11-01T06:25:18.020Z,89.54
2018-11-01T06:27:47.331Z,89.97
2018-11-01T06:30:17.908Z,89.78
2018-11-01T06:32:48.909Z,89.66
2018-11-01T06:35:21.495Z,89.52
2018-11-01T06:37:50.481Z,89.78
2018-11-01T06:40:19.758Z,89.69
2018-11-01T06:42:49.086Z,89.91
2018-11-01T06:45:18.608Z,90.03
2018-11-01T06:47:48.804Z,89.81
2018-11-01T06:50:19.396Z,89.98
2018-11-01T06:52:49.716Z,89.98
2018-11-01T06:55:19.232Z,89.90
2018-11-01T06:57:48.488Z,89.96
2018-11-01T07:00:17.442Z,90.17
2018-11-01T07:02:46.722Z,89.84
2018-11-01T07:05:16.125Z,90.18
2018-11-01T07:07:45.825Z,90.22
2018-11-01T07:10:15.740Z,90.21
2018-11-01T07:12:45.010Z,89.97
2018-11-01T07:15:15.033Z,89.79
2018-11-01T07:17:43.944Z,89.37
2018-11-01T07:20:14.305Z,89.25
2018-11-01T07:22:44.415Z,89.33
2018-11-01T07:25:15.676Z,89.54
2018-11-01T07:27:44.686Z,89.68
2018-11-01T07:30:16.721Z,89.70
2018-11-01T07:32:46.596Z,89.89
2018-11-01T07:35:15.590Z,89.87
2018-11-01T07:37:44.860Z,89.86
2018-11-01T07:40:16.436Z,89.80
2018-11-01T07:42:45.857Z,90.05
2018-11-01T07:45:15.589Z,89.67
2018-11-01T07:47:45.221Z,89.46
2018-11-01T07:50:14.301Z,89.27
2018-11-01T07:52:43.294Z,89.44
2018-11-01T07:55:14.123Z,89.55
2018-11-01T07:57:42.915Z,89.41
2018-11-01T08:00:13.956Z,89.85
2018-11-01T08:02:43.650Z,89.67
2018-11-01T08:05:13.312Z,89.60
2018-11-01T08:07:42.909Z,89.37
2018-11-01T08:10:14.684Z,89.36
2018-11-01T08:12:44.454Z,89.39
2018-11-01T08:15:16.386Z,89.44
2018-11-01T08:17:44.979Z,89.58
2018-11-01T08:20:18.918Z,89.90
2018-11-01T08:22:56.859Z,90.13
2018-11-01T08:25:32.033Z,90.39
2018-11-01T08:28:01.814Z,90.43
2018-11-01T08:30:30.596Z,90.62
2018-11-01T08:33:08.153Z,90.95
2018-11-01T08:35:42.725Z,91.12
2018-11-01T08:38:15.667Z,90.93
2018-11-01T08:40:48.182Z,90.82
2018-11-01T08:43:20.695Z,90.66
2018-11-01T08:45:51.601Z,91.06
2018-11-01T08:48:29.030Z,90.96
2018-11-01T08:51:02.678Z,90.99
2018-11-01T08:53:37.515Z,90.84
2018-11-01T08:56:11.558Z,90.92
2018-11-01T08:59:10.942Z,90.31
2018-11-01T09:02:05.232Z,90.24
2018-11-01T09:04:50.562Z,89.62
2018-11-01T09:07:23.108Z,89.51
2018-11-01T09:10:09.187Z,89.13
2018-11-01T09:13:12.249Z,89.01
2018-11-01T09:16:12.795Z,88.37
2018-11-01T09:18:51.750Z,88.66
2018-11-01T09:21:21.089Z,88.45
2018-11-01T09:23:50.938Z,87.97
2018-11-01T09:26:19.717Z,88.11
2018-11-01T09:28:48.871Z,88.12
2018-11-01T09:34:14.529Z,88.69
2018-11-01T09:36:50.163Z,88.19
2018-11-01T09:39:35.912Z,88.38
2018-11-01T09:42:11.149Z,88.47
2018-11-01T09:45:07.242Z,88.58
2018-11-01T09:48:06.172Z,88.76
2018-11-01T09:50:39.333Z,88.46
2018-11-01T09:53:11.931Z,88.06
2018-11-01T09:55:55.789Z,87.61
2018-11-01T09:58:28.878Z,87.62
2018-11-01T10:01:06.356Z,88.35
2018-11-01T10:03:37.962Z,88.02
2018-11-01T10:06:12.225Z,87.58
2018-11-01T10:08:55.244Z,87.21
2018-11-01T10:11:36.034Z,86.79
2018-11-01T10:14:15.853Z,87.30
2018-11-01T10:17:04.976Z,87.26
2018-11-01T10:20:15.474Z,87.37
2018-11-01T10:22:56.645Z,87.34
2018-11-01T10:25:40.569Z,87.09
2018-11-01T10:28:09.698Z,87.54
2018-11-01T10:30:39.176Z,87.36
2018-11-01T10:33:09.070Z,87.93
2018-11-01T10:35:37.873Z,86.95
2018-11-01T10:38:07.102Z,85.83
2018-11-01T10:40:36.576Z,86.45
2018-11-01T10:43:05.456Z,86.82
2018-11-01T10:45:34.369Z,86.98
2018-11-01T10:48:04.389Z,86.64
2018-11-01T10:50:33.804Z,86.94
2018-11-01T10:53:03.453Z,86.59
2018-11-01T10:55:33.625Z,85.94
2018-11-01T10:58:02.826Z,85.98
2018-11-01T11:00:37.113Z,85.47
2018-11-01T11:03:05.908Z,85.19
2018-11-01T11:05:35.157Z,85.25
2018-11-01T11:08:04.508Z,85.42
2018-11-01T11:10:33.433Z,85.62
2018-11-01T11:13:03.404Z,85.08
2018-11-01T11:15:32.026Z,84.41
2018-11-01T11:18:01.192Z,84.68
2018-11-01T11:20:31.026Z,84.79
2018-11-01T11:23:00.175Z,84.46
2018-11-01T11:25:29.287Z,85.11
2018-11-01T11:27:58.212Z,84.94
2018-11-01T11:30:27.985Z,85.01
2018-11-01T11:32:56.672Z,84.63
2018-11-01T11:35:26.630Z,84.98
2018-11-01T11:37:55.178Z,85.05
2018-11-01T11:40:24.641Z,85.53
2018-11-01T11:42:54.948Z,86.09
2018-11-01T11:45:24.104Z,86.01
2018-11-01T11:47:53.268Z,85.25
2018-11-01T11:50:22.388Z,85.18
2018-11-01T11:52:51.247Z,85.06
2018-11-01T11:55:20.342Z,85.19
2018-11-01T11:57:49.741Z,84.89
2018-11-01T12:00:18.348Z,84.35
2018-11-01T12:02:47.563Z,84.33
2018-11-01T12:05:16.422Z,84.45
2018-11-01T12:07:45.302Z,84.10
2018-11-01T12:10:14.663Z,83.77
2018-11-01T12:12:43.456Z,83.26
2018-11-01T12:15:12.609Z,83.55
2018-11-01T12:17:41.581Z,83.51
2018-11-01T12:20:11.960Z,83.57
2018-11-01T12:22:41.205Z,83.37
2018-11-01T12:25:10.778Z,83.14
2018-11-01T12:27:39.905Z,83.42
2018-11-01T12:30:10.345Z,83.55
2018-11-01T12:32:39.507Z,84.44
2018-11-01T12:35:09.181Z,83.87
2018-11-01T12:37:38.046Z,84.68
2018-11-01T12:40:08.240Z,85.13
2018-11-01T12:42:37.922Z,85.12
2018-11-01T12:45:07.576Z,85.86
2018-11-01T12:47:36.401Z,86.21
2018-11-01T12:50:07.815Z,86.18
2018-11-01T12:52:36.517Z,85.95
2018-11-01T12:55:05.584Z,85.85
2018-11-01T12:57:34.567Z,85.86
2018-11-01T13:00:03.779Z,85.42
2018-11-01T13:02:32.643Z,83.44
2018-11-01T13:05:01.904Z,82.31
2018-11-01T13:07:31.040Z,81.99
2018-11-01T13:10:00.732Z,81.24
2018-11-01T13:12:29.367Z,81.46
2018-11-01T13:15:03.780Z,80.76
2018-11-01T13:17:45.406Z,80.38
2018-11-01T13:20:17.552Z,80.56
2018-11-01T13:22:46.987Z,80.63
2018-11-01T13:25:23.156Z,81.56
2018-11-01T13:28:01.784Z,80.38
2018-11-01T13:30:30.736Z,80.61
2018-11-01T13:33:01.171Z,80.20
2018-11-01T13:35:30.880Z,79.77
2018-11-01T13:37:59.694Z,80.41
2018-11-01T13:40:29.766Z,79.95
2018-11-01T13:42:58.282Z,80.83
2018-11-01T13:45:27.085Z,80.47
2018-11-01T13:47:56.492Z,80.48
2018-11-01T13:50:25.797Z,80.50
2018-11-01T13:52:54.615Z,81.51
2018-11-01T13:55:23.747Z,81.59
2018-11-01T13:57:52.854Z,80.69
2018-11-01T14:00:22.091Z,80.01
2018-11-01T14:02:51.206Z,77.64
2018-11-01T14:05:20.193Z,74.07
2018-11-01T14:07:49.512Z,71.00
2018-11-01T14:10:19.198Z,68.51
2018-11-01T14:12:47.805Z,67.09
2018-11-01T14:15:17.255Z,67.09
2018-11-01T14:17:46.161Z,65.50
2018-11-01T14:20:15.211Z,66.54
2018-11-01T14:22:44.268Z,68.72
2018-11-01T14:25:13.780Z,72.64
2018-11-01T14:27:43.129Z,74.33
2018-11-01T14:30:15.388Z,74.26
2018-11-01T14:32:44.481Z,74.42
2018-11-01T14:35:13.476Z,75.41
2018-11-01T14:37:42.764Z,75.20
2018-11-01T14:40:13.148Z,76.86
2018-11-01T14:42:42.055Z,77.39
2018-11-01T14:45:11.470Z,78.28
2018-11-01T14:47:40.677Z,78.62
2018-11-01T14:50:10.010Z,78.84
2018-11-01T14:52:39.360Z,79.57
2018-11-01T14:55:09.492Z,79.96
2018-11-01T14:57:38.227Z,80.55
2018-11-01T15:00:06.434Z,80.30
2018-11-01T15:02:35.904Z,81.43
2018-11-01T15:05:04.951Z,81.63
2018-11-01T15:07:33.513Z,81.64
2018-11-01T15:10:02.867Z,81.11
2018-11-01T15:12:31.672Z,79.27
2018-11-01T15:15:00.700Z,77.76
2018-11-01T15:17:30.547Z,77.54
2018-11-01T15:19:59.373Z,80.25
2018-11-01T15:22:29.241Z,81.18
2018-11-01T15:24:58.703Z,83.10
2018-11-01T15:27:27.760Z,84.21
2018-11-01T15:29:56.704Z,84.38
2018-11-01T15:32:29.484Z,84.95
2018-11-01T15:34:59.420Z,85.51
2018-11-01T15:37:28.981Z,84.87
2018-11-01T15:39:58.394Z,86.16
2018-11-01T15:42:27.633Z,86.65
2018-11-01T15:44:56.460Z,87.56
2018-11-01T15:47:25.320Z,87.49
2018-11-01T15:49:54.720Z,87.71
2018-11-01T15:52:24.023Z,87.72
2018-11-01T15:54:54.240Z,87.20
2018-11-01T15:57:24.357Z,87.49
2018-11-01T15:59:53.348Z,87.76
2018-11-01T16:02:23.195Z,86.89
2018-11-01T16:04:52.595Z,87.63
2018-11-01T16:07:21.812Z,88.31
2018-11-01T16:09:51.073Z,88.92
2018-11-01T16:12:20.703Z,89.07
2018-11-01T16:14:49.864Z,89.17
2018-11-01T16:17:19.228Z,89.21
2018-11-01T16:19:48.489Z,89.01
2018-11-01T16:22:16.991Z,89.38
2018-11-01T16:24:46.317Z,88.96
2018-11-01T16:27:15.547Z,88.99
2018-11-01T16:29:44.994Z,89.03
2018-11-01T16:32:13.967Z,88.92
2018-11-01T16:34:43.022Z,88.84
2018-11-01T16:37:12.835Z,88.87
2018-11-01T16:39:41.630Z,89.37
2018-11-01T16:42:10.503Z,90.03
2018-11-01T16:44:39.980Z,90.24
2018-11-01T16:47:09.666Z,90.26
2018-11-01T16:49:38.980Z,91.07
2018-11-01T16:52:08.386Z,91.18
2018-11-01T16:54:38.532Z,91.61
2018-11-01T16:57:07.171Z,91.84
2018-11-01T16:59:36.456Z,92.38
2018-11-01T17:02:10.934Z,92.38
2018-11-01T17:04:45.609Z,92.00
2018-11-01T17:07:49.948Z,92.15
2018-11-01T17:10:21.893Z,92.17
2018-11-01T17:12:58.383Z,91.72
2018-11-01T17:15:46.411Z,92.07
2018-11-01T17:18:16.937Z,92.19
2018-11-01T17:20:46.385Z,92.37
2018-11-01T17:23:36.295Z,92.38
2018-11-01T17:26:22.619Z,91.97
2018-11-01T17:28:53.475Z,91.50
2018-11-01T17:31:30.749Z,91.79
2018-11-01T17:33:59.997Z,91.49
2018-11-01T17:36:28.532Z,91.45
2018-11-01T17:38:58.266Z,91.37
2018-11-01T17:41:27.443Z,91.54
2018-11-01T17:43:56.876Z,91.75
2018-11-01T17:46:25.816Z,91.20
2018-11-01T17:48:54.954Z,91.22
2018-11-01T17:51:23.884Z,90.94
2018-11-01T17:53:53.056Z,91.35
2018-11-01T17:56:22.827Z,91.35
2018-11-01T17:58:52.158Z,90.69
2018-11-01T18:01:21.362Z,90.77
2018-11-01T18:03:51.009Z,90.69
2018-11-01T18:06:20.665Z,90.67
2018-11-01T18:08:50.119Z,91.19
2018-11-01T18:11:19.242Z,91.32
2018-11-01T18:13:48.495Z,91.52
2018-11-01T18:16:17.938Z,91.97
2018-11-01T18:18:46.751Z,92.31
2018-11-01T18:21:15.334Z,93.01
2018-11-01T18:23:44.025Z,93.43
2018-11-01T18:26:13.685Z,93.22
2018-11-01T18:28:42.589Z,93.40
2018-11-01T18:31:12.722Z,93.24
2018-11-01T18:33:42.186Z,93.12
2018-11-01T18:36:11.218Z,93.02
2018-11-01T18:38:39.885Z,93.30
2018-11-01T18:41:09.221Z,93.62
2018-11-01T18:43:38.362Z,93.80
2018-11-01T18:46:08.328Z,93.31
2018-11-01T18:48:37.294Z,93.29
2018-11-01T18:51:07.342Z,93.32
2018-11-01T18:53:37.049Z,93.07
2018-11-01T18:56:06.522Z,92.66
2018-11-01T18:58:35.279Z,93.16
2018-11-01T19:01:04.195Z,93.56
2018-11-01T19:03:33.465Z,93.64
2018-11-01T19:06:03.502Z,93.59
2018-11-01T19:08:32.604Z,93.30
2018-11-01T19:11:01.492Z,93.42
2018-11-01T19:13:31.434Z,93.29
2018-11-01T19:15:59.991Z,93.34
2018-11-01T19:18:29.379Z,92.74
2018-11-01T19:20:58.971Z,92.39
2018-11-01T19:23:27.955Z,93.02
2018-11-01T19:25:57.438Z,92.88
2018-11-01T19:28:26.510Z,92.82
2018-11-01T19:30:55.637Z,92.43
2018-11-01T19:33:25.262Z,92.40
2018-11-01T19:35:54.293Z,92.39
2018-11-01T19:38:23.171Z,92.56
2018-11-01T19:40:51.781Z,93.01
2018-11-01T19:43:21.323Z,93.04
2018-11-01T19:45:50.713Z,92.79
2018-11-01T19:48:19.603Z,92.73
2018-11-01T19:50:49.208Z,92.85
2018-11-01T19:53:18.558Z,92.84
2018-11-01T19:55:47.819Z,92.78
2018-11-01T19:58:17.480Z,93.01
2018-11-01T20:00:47.302Z,92.68
2018-11-01T20:03:16.368Z,92.71
2018-11-01T20:05:45.960Z,92.67
2018-11-01T20:08:16.305Z,92.94
2018-11-01T20:10:45.501Z,93.03
2018-11-01T20:13:14.626Z,93.34
2018-11-01T20:15:44.176Z,93.31
2018-11-01T20:18:13.529Z,93.28
2018-11-01T20:20:42.858Z,93.23
2018-11-01T20:23:12.026Z,93.03
2018-11-01T20:25:40.770Z,93.29
2018-11-01T20:28:09.768Z,93.14
2018-11-01T20:30:38.943Z,93.05
2018-11-01T20:33:07.784Z,93.01
2018-11-01T20:35:36.399Z,93.18
2018-11-01T20:38:05.889Z,93.27
2018-11-01T20:40:34.818Z,93.53
2018-11-01T20:43:03.993Z,94.04
2018-11-01T20:45:32.916Z,94.53
2018-11-01T20:48:01.855Z,94.62
2018-11-01T20:50:31.005Z,94.72
2018-11-01T20:53:00.354Z,94.42
2018-11-01T20:55:30.675Z,94.66
2018-11-01T20:58:00.052Z,94.36
2018-11-01T21:00:29.098Z,94.21
2018-11-01T21:02:58.273Z,94.73
2018-11-01T21:05:28.313Z,94.17
2018-11-01T21:07:57.756Z,94.83
2018-11-01T21:10:27.535Z,94.73
2018-11-01T21:12:59.293Z,94.83
2018-11-01T21:15:29.776Z,95.04
2018-11-01T21:17:58.916Z,95.27
2018-11-01T21:20:28.205Z,95.02
2018-11-01T21:22:58.557Z,94.81
2018-11-01T21:25:27.568Z,95.01
2018-11-01T21:27:56.181Z,95.20
2018-11-01T21:30:25.248Z,95.24
2018-11-01T21:32:54.962Z,95.40
2018-11-01T21:35:24.113Z,95.26
2018-11-01T21:37:53.359Z,95.63
2018-11-01T21:40:22.649Z,95.85
2018-11-01T21:42:51.441Z,95.17
2018-11-01T21:45:20.480Z,95.32
2018-11-01T21:47:50.267Z,94.95
2018-11-01T21:50:19.526Z,94.90
2018-11-01T21:52:48.874Z,94.89
2018-11-01T21:55:18.050Z,94.79
2018-11-01T21:57:47.893Z,94.44
2018-11-01T22:00:17.109Z,94.04
2018-11-01T22:02:46.143Z,94.03
2018-11-01T22:05:16.497Z,94.11
2018-11-01T22:07:45.653Z,94.52
2018-11-01T22:10:15.068Z,94.21
2018-11-01T22:12:43.644Z,94.46
2018-11-01T22:15:12.792Z,94.29
2018-11-01T22:17:43.329Z,93.95
2018-11-01T22:20:12.454Z,94.07
2018-11-01T22:22:42.418Z,93.91
2018-11-01T22:25:11.925Z,93.92
2018-11-01T22:27:41.484Z,93.61
2018-11-01T22:30:11.385Z,93.69
2018-11-01T22:32:40.978Z,94.13
2018-11-01T22:35:10.627Z,94.15
2018-11-01T22:37:40.460Z,94.50
2018-11-01T22:40:10.221Z,94.81
2018-11-01T22:42:39.342Z,94.88
2018-11-01T22:45:09.708Z,94.85
2018-11-01T22:47:39.191Z,94.69
2018-11-01T22:50:08.804Z,94.48
2018-11-01T22:52:37.952Z,94.80
2018-11-01T22:55:07.994Z,94.81
2018-11-01T22:57:36.992Z,94.67
2018-11-01T23:00:07.432Z,94.89
2018-11-01T23:02:36.481Z,94.78
2018-11-01T23:05:06.141Z,94.76
2018-11-01T23:07:35.416Z,94.81
2018-11-01T23:10:05.296Z,94.42
2018-11-01T23:12:34.646Z,94.56
2018-11-01T23:15:04.016Z,95.02
2018-11-01T23:17:33.544Z,95.72
2018-11-01T23:20:03.035Z,95.91
2018-11-01T23:22:32.710Z,95.87
2018-11-01T23:25:01.936Z,96.17
2018-11-01T23:27:31.348Z,95.94
2018-11-01T23:30:01.417Z,95.93
2018-11-01T23:32:30.900Z,96.04
2018-11-01T23:35:00.038Z,96.32
2018-11-01T23:37:33.903Z,96.40
2018-11-01T23:40:07.738Z,96.71
2018-11-01T23:42:41.738Z,97.13
2018-11-01T23:45:16.943Z,97.02
2018-11-01T23:47:51.537Z,96.73
2018-11-01T23:50:32.244Z,97.13
2018-11-01T23:53:06.280Z,97.14
2018-11-01T23:55:35.230Z,97.12
2018-11-01T23:58:04.563Z,97.75
